createdAt,value
2023-02-14T00:01:09.820Z,14.57
2023-02-14T00:04:52.506Z,13.97
2023-02-14T00:08:35.733Z,15.30
2023-02-14T00:12:19.829Z,14.80
2023-02-14T00:16:03.558Z,13.87
2023-02-14T00:19:46.294Z,14.10
2023-02-14T00:23:29.038Z,23.80
2023-02-14T00:27:11.822Z,15.90
2023-02-14T00:30:58.148Z,15.07
2023-02-14T00:34:41.823Z,16.20
2023-02-14T00:38:24.466Z,14.67
2023-02-14T00:42:07.196Z,15.40
2023-02-14T00:45:50.011Z,15.67
2023-02-14T00:49:34.341Z,14.57
2023-02-14T00:53:18.871Z,15.47
2023-02-14T00:57:01.511Z,14.50
2023-02-14T01:00:44.339Z,14.97
2023-02-14T01:04:29.172Z,14.50
2023-02-14T01:08:13.213Z,15.57
2023-02-14T01:11:55.930Z,14.70
2023-02-14T01:15:40.713Z,13.83
2023-02-14T01:19:23.369Z,14.40
2023-02-14T01:23:06.187Z,13.83
2023-02-14T01:26:50.292Z,14.37
2023-02-14T01:30:33.046Z,13.33
2023-02-14T01:34:18.841Z,15.27
2023-02-14T01:38:01.563Z,14.90
2023-02-14T01:41:50.482Z,15.03
2023-02-14T01:45:35.989Z,14.83
2023-02-14T01:49:23.486Z,16.10
2023-02-14T01:53:08.212Z,14.87
2023-02-14T01:56:53.741Z,16.07
2023-02-14T02:00:56.491Z,15.30
2023-02-14T02:04:41.884Z,14.37
2023-02-14T02:08:24.919Z,15.40
2023-02-14T02:12:07.661Z,15.00
2023-02-14T02:16:19.521Z,15.33
2023-02-14T02:20:28.860Z,13.57
2023-02-14T02:24:22.459Z,13.10
2023-02-14T02:28:25.762Z,13.87
2023-02-14T02:32:33.713Z,14.10
2023-02-14T02:36:29.557Z,13.57
2023-02-14T02:40:24.892Z,14.23
2023-02-14T02:44:15.134Z,13.80
2023-02-14T02:48:06.355Z,14.30
2023-02-14T02:52:12.266Z,13.80
2023-02-14T02:56:18.467Z,14.33
2023-02-14T03:00:03.667Z,12.37
2023-02-14T03:04:06.620Z,13.00
2023-02-14T03:07:51.200Z,13.23
2023-02-14T03:11:33.934Z,15.03
2023-02-14T03:15:23.387Z,14.23
2023-02-14T03:19:57.029Z,14.20
2023-02-14T03:23:46.181Z,14.93
2023-02-14T03:27:32.302Z,14.97
2023-02-14T03:31:21.926Z,15.03
2023-02-14T03:35:12.902Z,15.80
2023-02-14T03:39:01.387Z,14.73
2023-02-14T03:42:48.443Z,15.33
2023-02-14T03:46:33.592Z,14.33
2023-02-14T03:50:17.415Z,14.17
2023-02-14T03:54:02.641Z,14.83
2023-02-14T03:57:51.038Z,13.97
2023-02-14T04:01:38.004Z,13.87
2023-02-14T04:05:25.087Z,14.40
2023-02-14T04:09:09.108Z,13.93
2023-02-14T04:12:51.871Z,15.33
2023-02-14T04:16:55.766Z,13.47
2023-02-14T04:20:37.534Z,12.87
2023-02-14T04:24:21.734Z,12.40
2023-02-14T04:28:04.359Z,12.60
2023-02-14T04:31:47.210Z,12.83
2023-02-14T04:35:29.994Z,12.10
2023-02-14T04:39:12.706Z,13.07
2023-02-14T04:42:56.990Z,12.67
2023-02-14T04:46:39.765Z,13.50
2023-02-14T04:50:23.425Z,13.03
2023-02-14T04:54:06.178Z,12.70
2023-02-14T04:57:48.890Z,13.03
2023-02-14T05:01:32.958Z,13.37
2023-02-14T05:05:15.744Z,13.47
2023-02-14T05:08:58.475Z,13.50
2023-02-14T05:12:41.145Z,12.30
2023-02-14T05:16:24.030Z,12.67
2023-02-14T05:20:09.422Z,12.73
2023-02-14T05:23:52.063Z,13.17
2023-02-14T05:27:34.693Z,12.13
2023-02-14T05:31:17.419Z,12.90
2023-02-14T05:35:01.202Z,12.70
2023-02-14T05:38:45.436Z,12.67
2023-02-14T05:42:28.243Z,12.83
2023-02-14T05:46:10.996Z,12.80
2023-02-14T05:49:53.697Z,11.73
2023-02-14T05:53:38.061Z,13.07
2023-02-14T05:57:23.390Z,12.47
2023-02-14T06:01:09.272Z,12.30
2023-02-14T06:04:52.084Z,12.47
2023-02-14T06:08:34.982Z,12.07
2023-02-14T06:12:17.609Z,10.77
2023-02-14T06:16:01.658Z,10.60
2023-02-14T06:19:44.352Z,11.50
2023-02-14T06:23:27.037Z,10.80
2023-02-14T06:27:09.853Z,11.10
2023-02-14T06:30:52.820Z,10.70
2023-02-14T06:34:37.043Z,10.50
2023-02-14T06:38:19.730Z,10.73
2023-02-14T06:42:02.412Z,11.63
2023-02-14T06:45:45.169Z,11.73
2023-02-14T06:49:27.883Z,11.27
2023-02-14T06:53:12.033Z,11.83
2023-02-14T06:56:54.667Z,12.23
2023-02-14T07:00:40.721Z,13.03
2023-02-14T07:04:23.439Z,12.80
2023-02-14T07:08:08.126Z,12.57
2023-02-14T07:11:52.152Z,12.57
2023-02-14T07:15:35.051Z,14.03
2023-02-14T07:19:17.804Z,14.10
2023-02-14T07:23:04.323Z,14.47
2023-02-14T07:26:47.020Z,14.97
2023-02-14T07:30:31.350Z,15.07
2023-02-14T07:34:14.040Z,12.73
2023-02-14T07:37:56.740Z,12.40
2023-02-14T07:41:39.458Z,12.80
2023-02-14T07:45:22.424Z,14.20
2023-02-14T07:49:06.664Z,13.57
2023-02-14T07:52:49.470Z,12.87
2023-02-14T07:56:32.244Z,12.43
2023-02-14T08:00:15.638Z,12.00
2023-02-14T08:03:58.589Z,12.00
2023-02-14T08:07:43.070Z,12.33
2023-02-14T08:11:43.001Z,11.57
2023-02-14T08:15:43.466Z,12.43
2023-02-14T08:19:26.204Z,12.50
2023-02-14T08:23:10.264Z,13.10
2023-02-14T08:26:56.536Z,14.33
2023-02-14T08:30:39.385Z,13.33
2023-02-14T08:34:22.036Z,12.93
2023-02-14T08:38:06.011Z,13.77
2023-02-14T08:41:50.104Z,14.27
2023-02-14T08:45:33.370Z,13.07
2023-02-14T08:49:16.038Z,14.20
2023-02-14T08:53:00.465Z,13.63
2023-02-14T08:56:43.218Z,13.73
2023-02-14T09:00:27.623Z,13.47
2023-02-14T09:04:11.404Z,14.80
2023-02-14T09:07:55.934Z,15.43
2023-02-14T09:11:38.675Z,14.50
2023-02-14T09:15:21.451Z,17.00
2023-02-14T09:19:07.143Z,13.70
2023-02-14T09:22:49.828Z,13.50
2023-02-14T09:26:32.633Z,13.27
2023-02-14T09:30:16.785Z,13.70
2023-02-14T09:34:02.224Z,14.40
2023-02-14T09:38:03.849Z,14.03
2023-02-14T09:42:10.237Z,12.60
2023-02-14T09:45:54.488Z,14.67
2023-02-14T09:49:40.904Z,13.37
2023-02-14T09:53:28.079Z,14.17
2023-02-14T09:57:14.508Z,14.80
2023-02-14T10:01:01.508Z,15.07
2023-02-14T10:04:49.866Z,14.40
2023-02-14T10:08:46.619Z,15.90
2023-02-14T10:12:34.069Z,14.57
2023-02-14T10:16:20.794Z,14.93
2023-02-14T10:20:07.087Z,15.53
2023-02-14T10:23:55.251Z,15.37
2023-02-14T10:27:42.546Z,15.70
2023-02-14T10:31:27.500Z,15.93
2023-02-14T10:35:19.497Z,15.67
2023-02-14T10:39:10.023Z,16.17
2023-02-14T10:42:59.042Z,15.77
2023-02-14T10:46:44.861Z,16.70
2023-02-14T10:50:31.873Z,16.27
2023-02-14T10:54:22.017Z,16.93
2023-02-14T10:58:07.979Z,16.37
2023-02-14T11:01:51.642Z,18.30
2023-02-14T11:05:37.374Z,18.00
2023-02-14T11:09:21.920Z,17.50
2023-02-14T11:13:04.600Z,16.53
2023-02-14T11:16:51.250Z,19.97
2023-02-14T11:20:34.009Z,18.73
2023-02-14T11:24:27.657Z,19.07
2023-02-14T11:28:15.980Z,18.53
2023-02-14T11:32:08.082Z,19.17
2023-02-14T11:35:52.135Z,18.43
2023-02-14T11:39:36.483Z,18.40
2023-02-14T11:43:21.798Z,19.80
2023-02-14T11:47:19.537Z,20.03
2023-02-14T11:51:05.298Z,20.93
2023-02-14T11:54:50.257Z,18.87
2023-02-14T11:58:35.285Z,19.97
2023-02-14T12:02:33.629Z,19.27
2023-02-14T12:06:24.693Z,19.40
2023-02-14T12:10:27.770Z,19.67
2023-02-14T12:14:22.290Z,19.43
2023-02-14T12:18:39.745Z,20.23
2023-02-14T12:22:23.881Z,20.37
2023-02-14T12:26:15.520Z,19.33
2023-02-14T12:30:05.231Z,19.90
2023-02-14T12:33:50.214Z,18.73
2023-02-14T12:37:41.575Z,19.27
2023-02-14T12:41:36.842Z,19.10
2023-02-14T12:45:24.471Z,18.73
2023-02-14T12:49:27.382Z,19.40
2023-02-14T12:53:26.402Z,18.47
2023-02-14T12:57:20.314Z,18.33
2023-02-14T13:01:21.704Z,18.20
2023-02-14T13:05:17.693Z,18.77
2023-02-14T13:09:27.509Z,18.47
2023-02-14T13:13:18.989Z,18.70
2023-02-14T13:17:06.362Z,17.17
2023-02-14T13:20:52.273Z,18.30
2023-02-14T13:24:42.337Z,17.40
2023-02-14T13:28:27.262Z,17.20
2023-02-14T13:32:13.012Z,16.87
2023-02-14T13:35:58.659Z,16.70
2023-02-14T13:39:46.360Z,17.00
2023-02-14T13:43:56.174Z,16.03
2023-02-14T13:47:38.880Z,14.77
2023-02-14T13:51:21.546Z,15.17
2023-02-14T13:55:07.964Z,15.93
2023-02-14T13:58:54.115Z,15.27
2023-02-14T14:02:44.832Z,15.30
2023-02-14T14:06:27.985Z,14.63
2023-02-14T14:10:14.592Z,14.93
2023-02-14T14:14:04.211Z,14.80
2023-02-14T14:17:50.736Z,15.77
2023-02-14T14:21:34.973Z,14.97
2023-02-14T14:25:33.294Z,13.70
2023-02-14T14:29:24.307Z,15.33
2023-02-14T14:33:18.112Z,14.23
2023-02-14T14:37:06.613Z,15.57
2023-02-14T14:40:49.862Z,14.47
2023-02-14T14:44:36.740Z,14.37
2023-02-14T14:48:23.498Z,14.83
2023-02-14T14:52:07.289Z,13.97
2023-02-14T14:55:52.138Z,14.30
2023-02-14T14:59:38.091Z,14.73
2023-02-14T15:03:22.955Z,15.53
2023-02-14T15:07:19.800Z,14.57
2023-02-14T15:11:06.221Z,15.80
2023-02-14T15:14:54.744Z,15.07
2023-02-14T15:18:37.537Z,13.87
2023-02-14T15:22:22.017Z,14.40
2023-02-14T15:26:06.152Z,14.33
2023-02-14T15:29:58.270Z,14.57
2023-02-14T15:33:41.338Z,15.50
2023-02-14T15:37:27.851Z,15.83
2023-02-14T15:41:10.674Z,14.80
2023-02-14T15:45:21.258Z,14.03
2023-02-14T15:49:09.281Z,14.47
2023-02-14T15:52:53.387Z,14.77
2023-02-14T15:56:38.213Z,15.07
2023-02-14T16:00:23.742Z,14.53
2023-02-14T16:04:08.518Z,15.63
2023-02-14T16:08:00.030Z,14.37
2023-02-14T16:11:42.916Z,15.00
2023-02-14T16:15:28.336Z,14.03
2023-02-14T16:19:32.323Z,16.20
2023-02-14T16:23:17.079Z,15.93
2023-02-14T16:27:06.658Z,15.77
2023-02-14T16:30:56.313Z,14.53
2023-02-14T16:34:39.315Z,15.13
2023-02-14T16:38:22.807Z,15.83
2023-02-14T16:42:05.915Z,14.03
2023-02-14T16:45:50.311Z,13.70
2023-02-14T16:49:32.991Z,16.40
2023-02-14T16:53:25.416Z,16.87
2023-02-14T16:57:10.641Z,16.07
2023-02-14T17:00:58.552Z,14.60
2023-02-14T17:04:41.912Z,13.43
2023-02-14T17:08:25.362Z,15.73
2023-02-14T17:12:13.309Z,17.20
2023-02-14T17:15:57.730Z,16.57
2023-02-14T17:19:40.639Z,15.93
2023-02-14T17:23:24.410Z,15.17
2023-02-14T17:27:07.510Z,16.10
2023-02-14T17:30:50.253Z,16.43
2023-02-14T17:34:34.832Z,16.73
2023-02-14T17:38:18.426Z,16.33
2023-02-14T17:42:01.214Z,16.20
2023-02-14T17:45:43.875Z,16.07
2023-02-14T17:49:26.741Z,17.37
2023-02-14T17:53:12.466Z,22.00
2023-02-14T17:56:55.202Z,19.97
2023-02-14T18:00:37.905Z,18.20
2023-02-14T18:04:20.620Z,18.70
2023-02-14T18:08:03.411Z,19.80
2023-02-14T18:11:47.464Z,18.20
2023-02-14T18:15:30.799Z,18.13
2023-02-14T18:19:15.860Z,18.70
2023-02-14T18:22:58.619Z,18.57
2023-02-14T18:26:42.141Z,17.37
2023-02-14T18:30:29.287Z,18.47
2023-02-14T18:34:12.243Z,17.87
2023-02-14T18:37:54.912Z,18.33
2023-02-14T18:41:39.732Z,16.90
2023-02-14T18:45:22.512Z,16.60
2023-02-14T18:49:08.406Z,15.67
2023-02-14T18:52:51.436Z,32.53
2023-02-14T18:56:36.853Z,25.13
2023-02-14T19:00:21.757Z,19.17
2023-02-14T19:04:08.607Z,17.87
2023-02-14T19:07:55.135Z,18.93
2023-02-14T19:11:38.000Z,17.83
2023-02-14T19:15:20.893Z,17.30
2023-02-14T19:19:03.801Z,17.40
2023-02-14T19:22:48.392Z,17.87
2023-02-14T19:26:34.926Z,17.30
2023-02-14T19:30:18.233Z,17.03
2023-02-14T19:34:00.914Z,16.60
2023-02-14T19:37:43.576Z,16.20
2023-02-14T19:41:30.152Z,16.10
2023-02-14T19:45:13.313Z,16.47
2023-02-14T19:48:56.844Z,17.80
2023-02-14T19:52:39.558Z,17.50
2023-02-14T19:56:23.151Z,16.97
2023-02-14T20:00:10.992Z,16.80
2023-02-14T20:03:53.904Z,16.23
2023-02-14T20:07:36.544Z,16.80
2023-02-14T20:11:26.865Z,15.93
2023-02-14T20:15:14.003Z,15.73
2023-02-14T20:18:56.914Z,14.20
2023-02-14T20:22:41.829Z,14.93
2023-02-14T20:26:24.820Z,15.43
2023-02-14T20:30:11.465Z,16.00
2023-02-14T20:33:54.184Z,16.03
2023-02-14T20:37:36.966Z,15.10
2023-02-14T20:41:20.000Z,16.43
2023-02-14T20:45:02.689Z,16.33
2023-02-14T20:48:46.782Z,16.20
2023-02-14T20:52:29.447Z,15.77
2023-02-14T20:56:12.605Z,16.03
2023-02-14T20:59:55.302Z,14.63
2023-02-14T21:03:38.411Z,16.43
2023-02-14T21:07:22.584Z,14.97
2023-02-14T21:11:06.568Z,15.93
2023-02-14T21:14:49.205Z,14.93
2023-02-14T21:18:32.760Z,14.50
2023-02-14T21:22:17.180Z,15.37
2023-02-14T21:26:01.456Z,15.07
2023-02-14T21:29:46.964Z,15.30
2023-02-14T21:33:31.316Z,16.13
2023-02-14T21:37:14.046Z,15.10
2023-02-14T21:41:05.571Z,20.20
2023-02-14T21:45:05.748Z,14.73
2023-02-14T21:49:06.096Z,14.93
2023-02-14T21:52:48.778Z,13.80
2023-02-14T21:56:32.906Z,14.57
2023-02-14T22:00:17.382Z,14.23
2023-02-14T22:04:00.278Z,14.40
2023-02-14T22:07:42.985Z,13.37
2023-02-14T22:11:27.685Z,14.23
2023-02-14T22:15:11.874Z,12.97
2023-02-14T22:18:54.568Z,13.47
2023-02-14T22:22:39.872Z,14.13
2023-02-14T22:26:27.758Z,14.57
2023-02-14T22:30:12.815Z,14.63
2023-02-14T22:33:55.683Z,13.73
2023-02-14T22:37:38.393Z,13.50
2023-02-14T22:41:25.722Z,13.97
2023-02-14T22:45:09.279Z,14.23
2023-02-14T22:48:57.054Z,13.63
2023-02-14T22:52:39.741Z,14.33
2023-02-14T22:56:24.925Z,14.40
2023-02-14T23:00:11.565Z,14.00
2023-02-14T23:03:56.734Z,14.23
2023-02-14T23:07:39.520Z,13.83
2023-02-14T23:11:23.908Z,14.07
2023-02-14T23:15:30.129Z,15.93
2023-02-14T23:19:33.900Z,13.87
2023-02-14T23:23:16.565Z,13.73
2023-02-14T23:26:59.327Z,12.67
2023-02-14T23:30:42.022Z,12.90
2023-02-14T23:34:28.192Z,13.73
2023-02-14T23:38:10.927Z,13.67
2023-02-14T23:41:55.481Z,13.53
2023-02-14T23:45:39.743Z,13.07
2023-02-14T23:49:24.188Z,12.43
2023-02-14T23:53:08.259Z,12.63
2023-02-14T23:56:52.199Z,12.93
